Greendell, New Jersey
Current Conditions -  °F | °C
As of 9:53 AM on Friday 31 Oct 2014 (Local Time) from KFWN Reporting Station
Clear Clear  
Wind Chill: 41°   Ceiling: Unl
Heat Index: 41°   Visibility: 10mi
Dew Point: 35°   Wind: 0mph
Humidity: 79%   Direction: NA
Pressure: 30.02"   Gusts: NA
Location:  40.97°N, 74.82°W
Report Text: KFWN 311353Z AUTO 00000KT 10SM CLR 05/02 A3002 RMK AO2 SLP167 T00500017
Loading
Personal Weather Stations






























Interactive Weather Map
Tropical Storm Tracking
New forecast layout! Learn more

10-Day Weather Forecast

Advertisements
Track Severe Weather on mobile